Time;durP1;ratioP1;P1;durP2;ratioP2;P2;SDS_P1;SDS_P2;PMS_P1;PMS_P2;Temp;Humidity;BMP_temperature;BMP_pressure;BME280_temperature;BME280_humidity;BME280_pressure;Samples;Min_cycle;Max_cycle;Signal;HPM_P1;HPM_P2
2022/07/30 00:01:06;;;;;;;9.52;7.72;;;18.30;99.90;;;;;;5049994;28;20045;-65
2022/07/30 00:03:32;;;;;;;11.43;8.07;;;18.30;99.90;;;;;;5052075;28;20151;-65
2022/07/30 00:05:58;;;;;;;9.80;8.00;;;18.30;99.90;;;;;;5055070;28;20037;-65
2022/07/30 00:08:24;;;;;;;10.70;8.70;;;18.20;99.90;;;;;;5053202;28;20037;-65
2022/07/30 00:10:50;;;;;;;11.68;8.30;;;18.20;99.90;;;;;;5054440;28;20068;-65
2022/07/30 00:13:16;;;;;;;11.73;8.43;;;18.20;99.90;;;;;;5045646;28;20045;-65
2022/07/30 00:15:42;;;;;;;12.13;8.57;;;18.20;99.90;;;;;;5040716;28;20045;-66
2022/07/30 00:18:08;;;;;;;10.80;7.53;;;18.10;99.90;;;;;;5037495;28;20056;-65
2022/07/30 00:20:33;;;;;;;10.68;7.22;;;18.10;99.90;;;;;;5043686;28;20049;-65
2022/07/30 00:23:03;;;;;;;8.65;6.88;;;18.10;99.90;;;;;;5036513;28;20045;-65
2022/07/30 00:25:29;;;;;;;9.20;7.20;;;18.10;99.90;;;;;;5046096;28;20065;-65
2022/07/30 00:27:54;;;;;;;11.15;8.40;;;18.10;99.90;;;;;;5043199;28;20075;-65
2022/07/30 00:30:20;;;;;;;13.30;10.32;;;18.00;99.90;;;;;;5045921;28;20029;-65
2022/07/30 00:32:45;;;;;;;16.98;10.63;;;18.10;99.90;;;;;;5041668;28;20094;-65
2022/07/30 00:35:11;;;;;;;16.98;11.07;;;18.00;99.90;;;;;;5040435;28;20152;-65
2022/07/30 00:37:37;;;;;;;16.42;11.00;;;18.00;99.90;;;;;;5035743;28;20046;-65
2022/07/30 00:40:03;;;;;;;14.88;10.25;;;18.00;99.90;;;;;;5038606;28;20044;-65
2022/07/30 00:42:46;;;;;;;15.88;11.43;;;18.10;99.90;;;;;;5043581;28;20330;-65
2022/07/30 00:45:13;;;;;;;14.45;10.80;;;18.10;99.90;;;;;;5033631;28;20043;-65
2022/07/30 00:47:39;;;;;;;14.73;11.27;;;18.10;99.90;;;;;;5043564;28;20179;-65
2022/07/30 00:50:06;;;;;;;16.55;11.70;;;18.10;99.90;;;;;;5031728;28;20116;-65
2022/07/30 00:52:33;;;;;;;20.60;13.65;;;18.10;99.90;;;;;;5042526;28;20131;-65
2022/07/30 00:54:59;;;;;;;20.35;14.27;;;18.10;99.90;;;;;;5044147;28;20064;-65
2022/07/30 00:57:26;;;;;;;19.33;14.70;;;18.10;99.90;;;;;;5042204;28;20040;-65
2022/07/30 00:59:52;;;;;;;19.60;13.77;;;18.10;99.90;;;;;;5037414;28;20049;-65
2022/07/30 01:02:18;;;;;;;21.10;14.50;;;18.10;99.90;;;;;;5038433;28;20073;-66
2022/07/30 01:04:44;;;;;;;22.35;14.52;;;18.00;99.90;;;;;;5043249;28;20586;-65
2022/07/30 01:07:09;;;;;;;19.48;14.40;;;18.00;99.90;;;;;;5040609;28;20040;-65
2022/07/30 01:09:36;;;;;;;21.00;14.07;;;18.00;99.90;;;;;;5034024;28;20484;-65
2022/07/30 01:12:02;;;;;;;18.20;14.10;;;18.00;99.90;;;;;;5042120;28;20116;-65
2022/07/30 01:14:27;;;;;;;19.88;13.93;;;18.00;99.90;;;;;;5043426;28;20145;-65
2022/07/30 01:16:54;;;;;;;16.38;12.80;;;18.00;99.90;;;;;;5038998;28;20048;-66
2022/07/30 01:22:33;;;;;;;18.13;13.32;;;17.90;99.90;;;;;;5037789;28;20049;-65
2022/07/30 01:25:23;;;;;;;17.52;13.18;;;18.00;99.90;;;;;;5035314;28;20094;-65
2022/07/30 01:28:09;;;;;;;17.05;13.50;;;17.90;99.90;;;;;;5033157;28;20445;-65
2022/07/30 01:30:39;;;;;;;16.33;13.07;;;18.00;99.90;;;;;;5041466;28;20396;-65
2022/07/30 01:33:06;;;;;;;15.70;12.73;;;17.90;99.90;;;;;;5035563;28;20046;-65
2022/07/30 01:35:33;;;;;;;14.38;12.10;;;17.90;99.90;;;;;;5038737;28;20219;-65
2022/07/30 01:38:00;;;;;;;15.38;12.40;;;17.90;99.90;;;;;;5035547;28;20057;-65
2022/07/30 01:40:28;;;;;;;17.25;13.18;;;17.90;99.90;;;;;;5036904;28;21472;-65
2022/07/30 01:42:57;;;;;;;15.50;12.40;;;17.90;99.90;;;;;;5033219;28;20095;-65
2022/07/30 01:45:24;;;;;;;14.07;11.77;;;17.80;99.90;;;;;;5038777;28;20111;-65
2022/07/30 01:47:54;;;;;;;15.48;12.20;;;17.80;99.90;;;;;;5021144;28;20048;-65
2022/07/30 01:50:21;;;;;;;14.80;11.50;;;17.80;99.90;;;;;;5038659;28;20124;-65
2022/07/30 01:52:51;;;;;;;12.57;11.27;;;17.70;99.90;;;;;;5030685;28;20111;-65
2022/07/30 01:55:25;;;;;;;13.77;11.30;;;17.70;99.90;;;;;;5040460;28;20049;-65
2022/07/30 01:57:54;;;;;;;16.48;11.30;;;17.70;99.90;;;;;;5037226;28;20059;-65
2022/07/30 02:00:21;;;;;;;18.90;13.18;;;17.60;99.90;;;;;;5042660;28;20525;-65
2022/07/30 02:02:46;;;;;;;16.08;12.75;;;17.50;99.90;;;;;;5030686;28;20063;-65
2022/07/30 02:05:12;;;;;;;15.13;12.48;;;17.50;99.90;;;;;;5039160;28;20036;-65
2022/07/30 02:07:46;;;;;;;15.50;12.15;;;17.50;99.90;;;;;;5035310;28;20099;-65
2022/07/30 02:10:27;;;;;;;92.97;15.20;;;17.50;99.90;;;;;;5037319;28;20136;-65
2022/07/30 02:12:55;;;;;;;84.07;14.60;;;17.40;99.90;;;;;;5037418;28;20131;-65
2022/07/30 02:15:55;;;;;;;22.95;12.63;;;17.40;99.90;;;;;;5035256;28;20044;-65
2022/07/30 02:18:31;;;;;;;35.95;11.98;;;17.40;99.90;;;;;;5021610;28;20045;-65
2022/07/30 02:21:04;;;;;;;16.30;11.45;;;17.40;99.90;;;;;;5034535;28;21583;-65
2022/07/30 02:23:35;;;;;;;21.85;11.35;;;17.30;99.90;;;;;;5038708;28;20080;-65
2022/07/30 02:26:02;;;;;;;14.98;10.52;;;17.40;99.90;;;;;;5043801;28;20486;-65
2022/07/30 02:28:31;;;;;;;18.38;11.10;;;17.30;99.90;;;;;;5038758;28;20098;-65
2022/07/30 02:30:59;;;;;;;20.33;11.25;;;17.30;99.90;;;;;;5034249;28;20337;-65
2022/07/30 02:33:39;;;;;;;14.32;10.02;;;17.30;99.90;;;;;;5041084;28;20033;-65
2022/07/30 02:36:06;;;;;;;12.27;10.35;;;17.30;99.90;;;;;;5034085;28;20447;-65
2022/07/30 02:38:32;;;;;;;28.65;11.63;;;17.30;99.90;;;;;;5033185;28;20479;-65
2022/07/30 02:41:00;;;;;;;16.52;9.73;;;17.30;99.90;;;;;;5035198;28;20037;-65
2022/07/30 02:43:28;;;;;;;10.80;9.48;;;17.20;99.90;;;;;;5037081;28;20360;-65
2022/07/30 02:45:55;;;;;;;16.70;10.13;;;17.20;99.90;;;;;;5042627;28;20177;-65
2022/07/30 02:48:22;;;;;;;14.90;9.75;;;17.20;99.90;;;;;;5036399;28;20120;-65
2022/07/30 02:50:50;;;;;;;13.25;9.88;;;17.20;99.90;;;;;;5029742;28;20045;-65
2022/07/30 02:53:17;;;;;;;15.35;10.32;;;17.20;99.90;;;;;;5034729;28;20151;-65
2022/07/30 02:55:44;;;;;;;12.93;9.70;;;17.20;99.90;;;;;;5029910;28;20437;-65
2022/07/30 02:58:14;;;;;;;16.00;10.60;;;17.20;99.90;;;;;;5027089;28;20156;-66
2022/07/30 03:00:41;;;;;;;12.73;9.75;;;17.20;99.90;;;;;;5025618;28;20591;-65
2022/07/30 03:03:08;;;;;;;13.95;10.35;;;17.20;99.90;;;;;;5027333;28;20065;-65
2022/07/30 03:05:36;;;;;;;12.60;9.27;;;17.20;99.90;;;;;;5027666;28;20116;-65
2022/07/30 03:08:02;;;;;;;14.68;10.30;;;17.20;99.90;;;;;;5032449;28;20045;-65
2022/07/30 03:10:28;;;;;;;13.48;10.13;;;17.20;99.90;;;;;;5026666;28;20034;-65
2022/07/30 03:12:55;;;;;;;13.73;9.88;;;17.20;99.90;;;;;;5028146;28;20071;-66
2022/07/30 03:15:21;;;;;;;13.27;9.82;;;17.20;99.90;;;;;;5029823;28;20033;-66
2022/07/30 03:17:51;;;;;;;11.38;9.57;;;17.20;99.90;;;;;;5027414;28;20041;-66
2022/07/30 03:20:20;;;;;;;13.23;8.52;;;17.20;99.90;;;;;;5039138;28;20048;-66
2022/07/30 03:22:50;;;;;;;11.80;8.98;;;17.20;99.90;;;;;;5034427;28;20044;-66
2022/07/30 03:25:21;;;;;;;12.20;9.40;;;17.30;99.90;;;;;;5028205;28;20117;-66
2022/07/30 03:27:48;;;;;;;13.25;10.50;;;17.20;99.90;;;;;;5034867;28;20155;-66
2022/07/30 03:30:13;;;;;;;12.68;9.23;;;17.30;99.90;;;;;;5038981;28;20377;-66
2022/07/30 03:32:40;;;;;;;15.05;9.90;;;17.20;99.90;;;;;;5037887;28;20083;-65
2022/07/30 03:35:08;;;;;;;14.20;9.75;;;17.20;99.90;;;;;;5042466;28;20037;-65
2022/07/30 03:37:35;;;;;;;15.02;9.88;;;17.30;99.90;;;;;;5028632;28;20119;-65
2022/07/30 03:40:02;;;;;;;12.65;9.38;;;17.20;99.90;;;;;;5033680;28;20045;-65
2022/07/30 03:42:29;;;;;;;14.80;10.00;;;17.30;99.90;;;;;;5042448;28;20068;-64
2022/07/30 03:44:56;;;;;;;11.73;8.95;;;17.20;99.90;;;;;;5038192;28;20103;-65
2022/07/30 03:47:23;;;;;;;12.60;9.15;;;17.20;99.90;;;;;;5037267;28;20064;-65
2022/07/30 03:49:48;;;;;;;12.88;9.93;;;17.30;99.90;;;;;;5032856;28;20038;-65
2022/07/30 03:52:16;;;;;;;11.77;8.75;;;17.30;99.90;;;;;;5033168;28;20049;-65
2022/07/30 03:54:42;;;;;;;11.18;8.80;;;17.20;99.90;;;;;;5034686;28;20826;-65
2022/07/30 03:57:07;;;;;;;14.07;8.80;;;17.30;99.90;;;;;;5035915;28;20038;-65
2022/07/30 03:59:33;;;;;;;11.40;8.73;;;17.30;99.90;;;;;;5025971;28;20045;-66
2022/07/30 04:02:01;;;;;;;11.95;9.57;;;17.30;99.90;;;;;;5038947;28;20045;-66
2022/07/30 04:04:27;;;;;;;11.45;9.13;;;17.30;99.90;;;;;;5049455;28;20436;-65
2022/07/30 04:06:53;;;;;;;11.27;9.20;;;17.20;99.90;;;;;;5042273;28;20071;-65
2022/07/30 04:09:19;;;;;;;10.85;8.73;;;17.20;99.90;;;;;;5034348;28;20056;-66
2022/07/30 04:11:45;;;;;;;11.43;8.70;;;17.20;99.90;;;;;;5030942;28;20072;-66
2022/07/30 04:14:10;;;;;;;10.60;8.38;;;17.20;99.90;;;;;;5032615;28;20118;-65
2022/07/30 04:16:57;;;;;;;10.48;8.57;;;17.20;99.90;;;;;;5039789;28;20127;-65
2022/07/30 04:19:28;;;;;;;10.63;8.45;;;17.20;99.90;;;;;;5042902;28;20400;-65
2022/07/30 04:21:55;;;;;;;11.32;8.52;;;17.20;99.90;;;;;;5042594;28;20099;-65
2022/07/30 04:24:22;;;;;;;10.63;7.72;;;17.20;99.90;;;;;;5031555;28;20064;-65
2022/07/30 04:26:50;;;;;;;11.15;8.38;;;17.20;99.90;;;;;;5042071;28;20041;-65
2022/07/30 04:29:16;;;;;;;9.18;7.40;;;17.20;99.90;;;;;;5033588;28;20041;-66
2022/07/30 04:31:42;;;;;;;11.05;8.05;;;17.20;99.90;;;;;;5029981;28;22127;-65
2022/07/30 04:34:13;;;;;;;9.77;7.30;;;17.20;99.90;;;;;;5045581;28;20044;-65
2022/07/30 04:36:39;;;;;;;10.60;7.57;;;17.30;99.90;;;;;;5031239;28;20041;-65
2022/07/30 04:39:04;;;;;;;10.57;7.40;;;17.30;99.90;;;;;;5028983;28;20130;-65
2022/07/30 04:41:30;;;;;;;12.57;7.95;;;17.20;99.90;;;;;;5031088;28;20041;-66
2022/07/30 04:43:56;;;;;;;10.18;7.75;;;17.30;99.90;;;;;;5033290;28;21226;-66
2022/07/30 04:46:21;;;;;;;12.25;8.30;;;17.30;99.90;;;;;;5037025;28;20368;-67
2022/07/30 04:48:47;;;;;;;12.38;8.40;;;17.30;99.90;;;;;;5035105;28;20053;-66
2022/07/30 04:51:18;;;;;;;16.77;8.68;;;17.40;99.90;;;;;;5039747;28;20920;-66
2022/07/30 04:53:45;;;;;;;12.23;7.35;;;17.40;99.90;;;;;;5042726;28;20046;-66
2022/07/30 04:56:13;;;;;;;11.20;7.43;;;17.50;99.90;;;;;;5038827;28;20096;-65
2022/07/30 04:58:40;;;;;;;13.35;7.30;;;17.50;99.90;;;;;;5040360;28;20060;-66
2022/07/30 05:01:07;;;;;;;13.23;8.13;;;17.60;99.90;;;;;;5036708;28;20102;-65
2022/07/30 05:03:35;;;;;;;12.85;8.32;;;17.60;99.90;;;;;;5036382;28;20037;-65
2022/07/30 05:06:01;;;;;;;13.48;8.43;;;17.70;99.90;;;;;;5041501;28;20046;-65
2022/07/30 05:08:27;;;;;;;14.10;8.18;;;17.70;99.90;;;;;;5049273;28;20113;-65
2022/07/30 05:10:54;;;;;;;10.48;7.60;;;17.80;99.90;;;;;;5033409;28;20387;-65
2022/07/30 05:13:19;;;;;;;10.95;7.40;;;17.80;99.90;;;;;;5041215;28;20116;-66
2022/07/30 05:15:45;;;;;;;13.27;7.55;;;17.80;99.90;;;;;;5038002;28;20123;-66
2022/07/30 05:18:11;;;;;;;11.90;8.30;;;17.90;99.90;;;;;;5040955;28;20041;-65
2022/07/30 05:20:38;;;;;;;11.73;7.82;;;18.00;99.90;;;;;;5038626;28;20175;-65
2022/07/30 05:23:04;;;;;;;14.02;8.23;;;18.00;99.90;;;;;;5035186;28;20041;-65
2022/07/30 05:25:29;;;;;;;10.27;6.95;;;18.10;99.90;;;;;;5037521;28;20091;-65
2022/07/30 05:27:56;;;;;;;14.25;7.80;;;18.10;99.90;;;;;;5031890;28;20048;-65
2022/07/30 05:30:23;;;;;;;14.48;8.05;;;18.20;99.90;;;;;;5037820;28;20137;-65
2022/07/30 05:32:49;;;;;;;17.45;9.07;;;18.30;99.90;;;;;;5043813;28;20045;-66
2022/07/30 05:35:14;;;;;;;18.65;9.05;;;18.40;99.90;;;;;;5041037;28;20499;-65
2022/07/30 05:37:40;;;;;;;16.95;8.82;;;18.40;99.90;;;;;;5038069;28;20041;-65
2022/07/30 05:40:06;;;;;;;13.55;8.35;;;18.40;99.90;;;;;;5032782;28;20044;-65
2022/07/30 05:42:32;;;;;;;16.40;8.80;;;18.40;99.90;;;;;;5048211;28;20060;-66
2022/07/30 05:44:59;;;;;;;16.30;9.15;;;18.50;99.90;;;;;;5036749;28;20461;-65
2022/07/30 05:47:25;;;;;;;17.83;10.02;;;18.60;99.90;;;;;;5040814;28;20053;-65
2022/07/30 05:49:51;;;;;;;18.17;11.02;;;18.70;99.90;;;;;;5048262;28;20057;-65
2022/07/30 05:52:16;;;;;;;18.52;11.13;;;18.70;99.90;;;;;;5030851;28;20042;-65
2022/07/30 05:54:42;;;;;;;19.27;11.70;;;18.90;99.90;;;;;;5042846;28;20048;-65
2022/07/30 05:57:07;;;;;;;20.17;11.70;;;18.90;99.90;;;;;;5046661;28;20045;-65
2022/07/30 05:59:33;;;;;;;21.15;13.88;;;19.00;99.90;;;;;;5038920;28;20163;-65
2022/07/30 06:02:00;;;;;;;19.17;12.55;;;19.00;99.90;;;;;;5029364;28;20117;-65
2022/07/30 06:04:26;;;;;;;19.30;11.75;;;19.00;99.90;;;;;;5035205;28;20044;-65
2022/07/30 06:06:51;;;;;;;16.50;11.10;;;19.10;99.90;;;;;;5035512;28;20050;-65
2022/07/30 06:09:17;;;;;;;18.67;9.90;;;19.20;99.90;;;;;;5037145;28;20105;-65
2022/07/30 06:11:43;;;;;;;14.25;9.40;;;19.30;99.90;;;;;;5033242;28;20219;-65
2022/07/30 06:14:08;;;;;;;17.77;9.55;;;19.30;99.90;;;;;;5033905;28;20038;-66
2022/07/30 06:16:34;;;;;;;16.55;10.05;;;19.40;99.90;;;;;;5030131;28;20049;-66
2022/07/30 06:18:59;;;;;;;15.30;9.10;;;19.50;99.90;;;;;;5035627;28;20052;-66
2022/07/30 06:21:25;;;;;;;16.88;9.30;;;19.60;99.90;;;;;;5042801;28;20037;-66
2022/07/30 06:23:50;;;;;;;13.38;8.90;;;19.60;99.90;;;;;;5036108;28;20125;-66
2022/07/30 06:26:16;;;;;;;13.07;9.18;;;19.70;99.90;;;;;;5042329;28;20511;-66
2022/07/30 06:28:41;;;;;;;15.07;9.07;;;19.80;99.90;;;;;;5034604;28;20056;-66
2022/07/30 06:31:07;;;;;;;15.13;8.68;;;19.90;99.90;;;;;;5032229;28;20060;-66
2022/07/30 06:33:33;;;;;;;14.15;8.35;;;20.10;99.90;;;;;;5028458;28;20453;-66
2022/07/30 06:35:58;;;;;;;15.98;9.52;;;20.30;99.90;;;;;;5037270;28;20075;-67
2022/07/30 06:38:24;;;;;;;15.85;9.70;;;20.30;99.90;;;;;;5041916;28;20645;-65
2022/07/30 06:40:49;;;;;;;16.80;9.18;;;20.30;99.90;;;;;;5038564;28;20068;-66
2022/07/30 06:43:15;;;;;;;15.75;10.35;;;20.40;99.90;;;;;;5030816;28;20061;-66
2022/07/30 06:45:40;;;;;;;17.85;11.23;;;20.30;99.90;;;;;;5027029;28;20041;-66
2022/07/30 06:48:06;;;;;;;18.95;10.88;;;20.50;99.90;;;;;;5025668;28;20562;-66
2022/07/30 06:50:32;;;;;;;20.77;11.73;;;20.40;99.90;;;;;;5028167;28;20045;-66
2022/07/30 06:52:57;;;;;;;19.02;11.20;;;20.50;99.90;;;;;;5028579;28;20048;-66
2022/07/30 06:55:24;;;;;;;19.40;10.63;;;20.50;99.90;;;;;;5026550;28;20354;-66
2022/07/30 06:57:50;;;;;;;21.40;11.15;;;20.50;99.90;;;;;;5033684;28;20117;-65
2022/07/30 07:00:15;;;;;;;22.13;11.65;;;20.40;99.90;;;;;;5029492;28;20745;-66
2022/07/30 07:02:42;;;;;;;17.33;9.55;;;20.40;99.90;;;;;;5027946;28;20144;-66
2022/07/30 07:05:08;;;;;;;15.90;8.80;;;20.30;99.90;;;;;;5027173;28;20144;-66
2022/07/30 07:07:34;;;;;;;16.85;8.20;;;20.30;99.90;;;;;;5032080;28;20132;-66
2022/07/30 07:10:00;;;;;;;14.55;8.43;;;20.30;99.90;;;;;;5033996;28;20400;-66
2022/07/30 07:12:25;;;;;;;13.20;6.97;;;20.50;99.90;;;;;;5029107;28;20075;-66
2022/07/30 07:14:51;;;;;;;10.77;5.78;;;20.60;99.90;;;;;;5030645;28;20124;-66
2022/07/30 07:17:16;;;;;;;9.48;5.25;;;20.80;99.90;;;;;;5026378;28;20485;-67
2022/07/30 07:19:42;;;;;;;11.00;4.95;;;20.90;99.90;;;;;;5026630;28;20128;-66
2022/07/30 07:22:08;;;;;;;10.07;4.95;;;20.80;99.90;;;;;;5029152;28;20073;-66
2022/07/30 07:24:33;;;;;;;9.65;5.25;;;21.00;99.90;;;;;;5031528;28;20065;-66
2022/07/30 07:26:59;;;;;;;14.75;4.53;;;21.10;99.90;;;;;;5032601;28;20072;-66
2022/07/30 07:29:24;;;;;;;10.25;4.55;;;21.20;99.90;;;;;;5030943;28;20072;-66
2022/07/30 07:31:50;;;;;;;11.27;6.80;;;21.20;99.90;;;;;;5031063;28;20530;-66
2022/07/30 07:34:16;;;;;;;14.73;7.65;;;21.20;99.90;;;;;;5032937;28;20396;-66
2022/07/30 07:36:41;;;;;;;19.02;9.10;;;21.10;99.90;;;;;;5033096;28;20064;-66
2022/07/30 07:39:08;;;;;;;14.45;7.70;;;21.00;99.90;;;;;;5033606;28;20046;-65
2022/07/30 07:41:38;;;;;;;12.10;7.00;;;21.10;99.90;;;;;;5032848;28;20049;-67
2022/07/30 07:44:04;;;;;;;17.50;7.25;;;21.20;99.90;;;;;;5044513;28;20543;-66
2022/07/30 07:46:30;;;;;;;15.88;8.40;;;21.40;99.90;;;;;;5032747;28;20099;-66
2022/07/30 07:48:56;;;;;;;15.60;7.90;;;21.60;99.90;;;;;;5027329;28;20110;-66
2022/07/30 07:51:22;;;;;;;12.07;5.93;;;21.80;99.90;;;;;;5031237;28;20049;-68
2022/07/30 07:53:47;;;;;;;13.82;5.80;;;22.10;99.90;;;;;;5042643;28;20065;-67
2022/07/30 07:56:13;;;;;;;11.15;5.22;;;22.00;99.90;;;;;;5046557;28;20068;-66
2022/07/30 07:58:39;;;;;;;8.85;4.28;;;21.90;99.90;;;;;;5043124;28;20053;-69
2022/07/30 08:01:05;;;;;;;12.55;5.47;;;22.00;99.90;;;;;;5040341;28;20453;-68
2022/07/30 08:03:31;;;;;;;10.77;5.13;;;22.10;99.90;;;;;;5038107;28;20041;-68
2022/07/30 08:05:57;;;;;;;9.27;4.55;;;22.00;99.90;;;;;;5031795;28;20483;-67
2022/07/30 08:08:23;;;;;;;11.50;4.72;;;22.00;99.90;;;;;;5041655;28;20048;-67
2022/07/30 08:10:48;;;;;;;9.63;3.70;;;22.00;99.90;;;;;;5038352;28;20349;-65
2022/07/30 08:13:14;;;;;;;8.73;3.58;;;22.20;99.90;;;;;;5032597;28;20037;-66
2022/07/30 08:15:40;;;;;;;10.77;4.07;;;22.30;99.90;;;;;;5043188;28;20584;-64
2022/07/30 08:18:06;;;;;;;10.75;4.60;;;22.50;99.90;;;;;;5043761;28;20520;-66
2022/07/30 08:20:34;;;;;;;11.18;5.20;;;22.60;99.90;;;;;;5044352;28;20384;-65
2022/07/30 08:23:00;;;;;;;7.95;3.33;;;22.60;99.90;;;;;;5049180;28;20128;-68
2022/07/30 08:25:26;;;;;;;9.35;3.25;;;22.60;99.90;;;;;;5042143;28;20041;-66
2022/07/30 08:27:52;;;;;;;9.00;2.80;;;22.70;99.90;;;;;;5043667;28;20041;-66
2022/07/30 08:30:18;;;;;;;7.57;3.13;;;22.70;99.90;;;;;;5035995;28;20129;-67
2022/07/30 08:32:43;;;;;;;7.95;4.20;;;22.70;99.90;;;;;;5044318;28;20136;-66
2022/07/30 08:35:09;;;;;;;9.27;3.88;;;22.80;99.90;;;;;;5037426;28;20080;-66
2022/07/30 08:37:36;;;;;;;6.72;3.03;;;22.80;99.90;;;;;;5038098;28;20033;-66
2022/07/30 08:40:03;;;;;;;6.82;2.70;;;22.80;99.90;;;;;;5039811;28;20433;-69
2022/07/30 08:42:29;;;;;;;5.72;2.72;;;22.80;99.90;;;;;;5050307;28;20072;-69
2022/07/30 08:44:55;;;;;;;8.52;3.05;;;22.90;99.90;;;;;;5047338;28;20106;-68
2022/07/30 08:47:29;;;;;;;7.53;2.45;;;23.00;99.90;;;;;;5043641;28;20040;-68
2022/07/30 08:50:00;;;;;;;6.68;2.95;;;23.10;99.90;;;;;;5041120;28;20047;-69
2022/07/30 08:52:26;;;;;;;9.20;3.40;;;23.30;99.90;;;;;;5044342;28;20534;-68
2022/07/30 08:54:53;;;;;;;10.00;3.00;;;23.40;99.90;;;;;;5039599;28;20128;-70
2022/07/30 08:57:19;;;;;;;7.43;3.25;;;23.60;99.80;;;;;;5045042;28;20046;-69
2022/07/30 08:59:45;;;;;;;9.10;3.20;;;23.70;99.70;;;;;;5041396;28;20037;-67
2022/07/30 09:02:10;;;;;;;5.47;3.10;;;23.60;99.60;;;;;;5031128;28;20526;-69
2022/07/30 09:04:36;;;;;;;6.68;2.67;;;23.40;99.40;;;;;;5044818;28;20129;-71
2022/07/30 09:07:01;;;;;;;7.78;2.70;;;23.40;99.20;;;;;;5029593;28;20095;-70
2022/07/30 09:09:27;;;;;;;9.02;3.45;;;23.50;98.80;;;;;;5028782;28;20048;-68
2022/07/30 09:11:53;;;;;;;9.32;4.05;;;23.60;98.70;;;;;;5038095;28;20049;-70
2022/07/30 09:14:18;;;;;;;7.90;3.53;;;23.70;98.20;;;;;;5038874;28;20083;-69
2022/07/30 09:16:45;;;;;;;9.50;3.75;;;23.80;97.70;;;;;;5036373;28;20041;-69
2022/07/30 09:19:15;;;;;;;7.38;3.70;;;23.90;98.10;;;;;;5036128;28;20048;-72
2022/07/30 09:21:41;;;;;;;11.57;3.92;;;24.00;97.80;;;;;;5035915;28;20637;-69
2022/07/30 09:24:09;;;;;;;7.47;3.58;;;23.90;97.70;;;;;;5039723;28;20037;-67
2022/07/30 09:27:04;;;;;;;9.18;3.63;;;23.80;97.60;;;;;;5040833;28;20043;-69
2022/07/30 09:29:30;;;;;;;7.13;3.15;;;23.60;97.50;;;;;;5028057;28;20126;-69
2022/07/30 09:32:04;;;;;;;6.75;2.90;;;23.60;97.70;;;;;;5049304;28;20472;-69
2022/07/30 09:34:38;;;;;;;7.43;3.03;;;23.70;97.80;;;;;;5047393;28;20102;-69
2022/07/30 09:37:09;;;;;;;7.80;3.40;;;23.70;97.70;;;;;;5034060;28;20141;-69
2022/07/30 09:39:37;;;;;;;8.38;3.22;;;23.80;97.40;;;;;;5034450;28;20048;-69
2022/07/30 09:42:15;;;;;;;7.30;2.78;;;23.90;97.30;;;;;;5032055;28;20041;-69
2022/07/30 09:44:40;;;;;;;7.85;3.10;;;24.00;97.50;;;;;;5032821;28;20512;-69
2022/07/30 09:47:06;;;;;;;6.70;2.83;;;24.00;97.10;;;;;;5031672;28;20132;-69
2022/07/30 09:49:32;;;;;;;6.90;2.40;;;24.00;96.60;;;;;;5026967;28;20033;-69
2022/07/30 09:51:57;;;;;;;7.05;3.05;;;24.10;96.60;;;;;;5031426;28;20128;-69
2022/07/30 09:54:28;;;;;;;6.00;2.55;;;24.00;95.70;;;;;;5034136;28;20144;-69
2022/07/30 09:57:06;;;;;;;8.05;2.88;;;23.70;95.60;;;;;;5039638;28;20071;-69
2022/07/30 09:59:32;;;;;;;6.68;2.60;;;23.70;95.90;;;;;;5026581;28;20074;-69
2022/07/30 10:01:57;;;;;;;6.50;2.42;;;23.90;96.10;;;;;;5031240;28;20061;-69
2022/07/30 10:04:28;;;;;;;6.15;2.53;;;24.20;96.30;;;;;;5026579;28;20120;-69
2022/07/30 10:06:54;;;;;;;4.03;2.10;;;24.30;95.30;;;;;;5028116;28;20038;-69
2022/07/30 10:09:34;;;;;;;8.30;2.38;;;24.50;94.50;;;;;;5028020;28;20071;-69
2022/07/30 10:12:03;;;;;;;8.45;2.20;;;24.60;93.70;;;;;;5037861;28;20534;-69
2022/07/30 10:14:40;;;;;;;6.43;2.10;;;24.90;94.20;;;;;;5035242;28;20160;-70
2022/07/30 10:17:06;;;;;;;6.32;2.13;;;25.20;93.80;;;;;;5029131;28;20107;-70
2022/07/30 10:19:32;;;;;;;5.68;2.50;;;25.40;93.30;;;;;;5025967;28;20508;-70
2022/07/30 10:21:58;;;;;;;4.80;2.20;;;25.50;92.30;;;;;;5033035;28;20045;-69
2022/07/30 10:24:24;;;;;;;5.82;2.35;;;25.50;92.00;;;;;;5043709;28;20109;-70
2022/07/30 10:26:52;;;;;;;7.20;2.35;;;25.40;91.20;;;;;;5047670;28;20099;-69
2022/07/30 10:29:19;;;;;;;6.70;2.35;;;25.50;91.10;;;;;;5047156;28;20045;-69
2022/07/30 10:31:45;;;;;;;6.72;2.20;;;25.50;91.10;;;;;;5047785;28;20445;-69
2022/07/30 10:34:13;;;;;;;5.05;1.88;;;25.60;90.90;;;;;;5043129;28;20060;-69
2022/07/30 10:36:47;;;;;;;6.30;2.00;;;25.80;90.40;;;;;;5045457;28;20279;-69
2022/07/30 10:39:18;;;;;;;8.18;2.33;;;26.00;90.20;;;;;;5046904;28;20052;-70
2022/07/30 10:42:27;;;;;;;5.93;1.90;;;26.00;88.80;;;;;;5046372;28;20326;-69
2022/07/30 10:45:06;;;;;;;5.72;1.95;;;26.00;86.80;;;;;;5038835;28;20124;-69
2022/07/30 10:47:33;;;;;;;6.93;2.10;;;25.90;87.90;;;;;;5035399;28;20052;-69
2022/07/30 10:50:04;;;;;;;4.68;2.00;;;25.80;88.70;;;;;;5042816;28;20037;-69
2022/07/30 10:52:56;;;;;;;6.80;2.22;;;25.90;89.00;;;;;;5034247;28;20218;-69
2022/07/30 10:55:25;;;;;;;5.32;1.95;;;25.90;82.80;;;;;;5045631;28;20547;-69
2022/07/30 10:58:11;;;;;;;6.45;1.90;;;25.90;84.00;;;;;;5047966;28;20048;-69
2022/07/30 11:00:51;;;;;;;4.80;1.80;;;25.80;85.00;;;;;;5043839;28;20465;-69
2022/07/30 11:03:30;;;;;;;2.97;1.85;;;25.80;84.90;;;;;;5043900;28;20045;-69
2022/07/30 11:06:28;;;;;;;8.68;2.53;;;25.70;83.90;;;;;;5044382;28;20352;-69
2022/07/30 11:08:53;;;;;;;5.05;1.77;;;25.70;84.90;;;;;;5025932;28;20187;-69
2022/07/30 11:11:22;;;;;;;5.53;1.92;;;25.70;83.80;;;;;;5048345;28;20076;-69
2022/07/30 11:13:58;;;;;;;4.43;1.85;;;25.70;82.40;;;;;;5044525;28;20342;-69
2022/07/30 11:16:45;;;;;;;5.13;1.98;;;25.80;83.00;;;;;;5037491;28;20055;-69
2022/07/30 11:19:23;;;;;;;4.22;1.65;;;25.80;81.60;;;;;;5043539;28;20063;-69
2022/07/30 11:22:21;;;;;;;5.45;1.92;;;25.80;80.80;;;;;;5046818;28;20036;-68
2022/07/30 11:24:47;;;;;;;6.72;1.88;;;25.80;81.90;;;;;;5044414;28;20092;-69
2022/07/30 11:27:45;;;;;;;5.65;1.75;;;25.80;81.30;;;;;;5046665;28;20488;-69
2022/07/30 11:30:20;;;;;;;6.43;2.20;;;25.80;82.60;;;;;;5028241;28;20059;-69
2022/07/30 11:32:52;;;;;;;7.13;2.13;;;25.90;83.10;;;;;;5045154;28;20480;-69
2022/07/30 11:35:29;;;;;;;4.65;1.98;;;25.90;83.10;;;;;;5033082;28;20045;-69
2022/07/30 11:38:11;;;;;;;5.15;1.83;;;25.80;81.50;;;;;;5045222;28;20477;-70
2022/07/30 11:40:53;;;;;;;5.03;1.63;;;25.80;81.10;;;;;;5047722;28;20056;-69
2022/07/30 11:43:24;;;;;;;7.95;2.08;;;25.90;82.70;;;;;;5042620;28;20385;-69
2022/07/30 11:45:52;;;;;;;6.68;2.05;;;26.00;81.80;;;;;;5042266;28;20051;-69
2022/07/30 11:48:19;;;;;;;6.70;1.90;;;26.00;81.60;;;;;;5043612;28;20037;-69
2022/07/30 11:50:46;;;;;;;7.03;1.80;;;26.00;81.20;;;;;;5046815;28;20049;-69
2022/07/30 11:53:19;;;;;;;6.65;2.13;;;25.90;81.40;;;;;;5046118;28;20122;-69
2022/07/30 11:55:59;;;;;;;7.38;2.20;;;26.00;80.90;;;;;;5042091;28;20083;-69
2022/07/30 11:58:34;;;;;;;5.30;1.80;;;26.00;80.80;;;;;;5045513;28;20114;-69
2022/07/30 12:01:15;;;;;;;5.40;1.83;;;26.10;80.40;;;;;;5047228;28;20045;-68
2022/07/30 12:03:44;;;;;;;4.88;1.65;;;26.20;81.50;;;;;;5045067;28;20626;-69
2022/07/30 12:06:18;;;;;;;4.43;1.70;;;26.30;80.00;;;;;;5038131;28;20043;-69
2022/07/30 12:08:51;;;;;;;3.55;1.50;;;26.10;79.00;;;;;;5046700;28;20045;-68
2022/07/30 12:11:17;;;;;;;5.13;1.60;;;26.10;79.80;;;;;;5049139;28;20041;-69
2022/07/30 12:13:53;;;;;;;5.00;1.52;;;26.20;79.20;;;;;;5047370;28;20048;-69
2022/07/30 12:16:19;;;;;;;7.03;1.90;;;26.30;78.60;;;;;;5046915;28;20147;-68
2022/07/30 12:18:46;;;;;;;2.88;1.40;;;26.30;78.40;;;;;;5048668;28;20330;-68
2022/07/30 12:21:14;;;;;;;5.72;1.40;;;26.30;78.10;;;;;;5034484;28;20042;-68
2022/07/30 12:23:42;;;;;;;3.53;1.48;;;26.30;77.00;;;;;;5036279;28;20447;-69
2022/07/30 12:26:19;;;;;;;5.80;1.48;;;26.20;75.90;;;;;;5046846;28;20106;-69
2022/07/30 12:28:45;;;;;;;4.68;1.40;;;26.30;75.90;;;;;;5050832;28;20384;-69
2022/07/30 12:31:14;;;;;;;4.63;1.40;;;26.30;73.40;;;;;;5050479;28;20045;-69
2022/07/30 12:33:40;;;;;;;2.72;1.40;;;26.40;71.40;;;;;;5046028;28;20060;-69
2022/07/30 12:36:06;;;;;;;3.97;1.30;;;26.30;70.00;;;;;;5036737;28;20447;-69
2022/07/30 12:38:49;;;;;;;4.32;1.30;;;26.40;67.10;;;;;;5045261;28;20094;-69
2022/07/30 12:41:14;;;;;;;2.55;1.10;;;26.50;63.80;;;;;;5039073;28;20061;-69
2022/07/30 12:43:46;;;;;;;1.77;0.90;;;26.40;63.30;;;;;;5049970;28;20045;-69
2022/07/30 12:46:17;;;;;;;3.17;1.20;;;26.10;61.80;;;;;;5044303;28;20049;-69
2022/07/30 12:49:01;;;;;;;3.35;1.13;;;25.90;62.80;;;;;;5035043;28;20120;-70